Airfield :
LOGIN :

Register | Disclaimer

   EN    FR    IT 

 










Legend :    VFR   Marginal VFR   IFR   Intensive IFR   Very Intensive IFR
Visi :
Ceiling :
>= 8 km
>= 3000ft
5 to 8 km
1000 to 3000 ft
1500m to 5 km
500 to 1000 ft
800 to 1500m
200 to 500 ft
< 800m
< 200 ft
Symbols :   Thunderstorms  Fog  Heavy snow  Heavy precipitations  Wind > 20 kt
SIGMETs :     Misc.  Thunderstorms  Icing  Turbulence  Mountain Waves  Volcanic Ashes






- Airport Elevation : 12 ft
- IATA code : BCN


LEBL - Barcelone

CURRENT METAR :
  • 090900Z 30015KT CAVOK 12/04 Q1020 NOSIG

EXPIRED METARs :
  • 090830Z 29014G25KT 260V330 CAVOK 11/04 Q1020 NOSIG
  • 090800Z 33006KT 270V070 CAVOK 10/04 Q1020 NOSIG
  • 090730Z 34011G22KT CAVOK 10/04 Q1020 NOSIG
  • 090700Z 34008KT 9999 FEW020 11/04 Q1020 NOSIG

TAF TAF LEBL
Valid from the 09 at 06:00 until the 10 at 06:00 UTC


090500Z 0906/1006 33010KT 9999 FEW020 TX17/0913Z TN08/0906Z
TEMPO 0912/0916 27005KT



MET'MAP, your aeronautical weather chart ! - Copyright ORBIFLY December 2007 - Disclaimer

ORBIFLY MET'MAP TEAM :

Programming & Development : Alexandra Zaïnal
Concept & original design : Baudouin d'Aumeries
Assistance for programming : Marc-Olivier Méhu
Technical & hardware support : Manuel Goepfert

Contact : metmap@orbifly.com




SOURCES & CREDITS :

   NOAA